Christian W Cenac — WDF5379 — position and weather

sailwx.info

Track history (hours):
 
Tides and Currents Weather Stations Pressure Air Temp Water Temp Dewpoint Dewpoint Depression Visibility Wind Speed Wind Dir Waves Ship Positions

Christian W Cenac

Owner: CTCO Marine Services LLC, Houma, LA. More information available from US FCC via Universal Licensing System and Coast Guard Vessel Documentation Center.

Last reported at 2017-Nov-16 23:51 UTC. Time now 2017-Nov-18 08:57 UTC.
Position N 29°44' W 095°08'.

Length 85 m; draft 2.1 m.

Type: Tug. MMSI: 367462490.

Date/timePositionNaut miles runAvg speedWind from/ knotsBaromVisibWave heightAir tempDewpointWater temp
2017-Nov-16 23:51N 29°44' W 095°08'3 5.0
2017-Nov-16 23:12N 29°45' W 095°12'  
2017-Nov-12 11:08N 29°44' W 095°08'6 0.4
2017-Nov-11 18:53N 29°42' W 095°01'2 5.3
2017-Nov-11 18:30N 29°41' W 094°59'3 6.3
2017-Nov-11 18:00N 29°38' W 094°58'4 6.4
2017-Nov-11 17:24N 29°35' W 094°56'3 6.5
2017-Nov-11 17:00N 29°33' W 094°54'134 4.5
2017-Nov-10 11:31N 29°51' W 092°22'0 5.9
2017-Nov-10 11:30N 29°51' W 092°22'3 6.1
2017-Nov-10 11:00N 29°50' W 092°18'3 5.9
2017-Nov-10 10:30N 29°48' W 092°15'3 5.6
2017-Nov-10 10:00N 29°47' W 092°12'1 1.2
2017-Nov-10 09:30N 29°47' W 092°12'1 2.3
2017-Nov-10 09:00N 29°47' W 092°11'2 5.0
2017-Nov-10 08:30N 29°47' W 092°08'3 5.7
2017-Nov-10 07:54N 29°48' W 092°04'2 5.8
2017-Nov-10 07:28N 29°49' W 092°01'66 5.6
2017-Nov-09 19:48N 29°32' W 090°49'2 6.1
2017-Nov-09 19:30N 29°32' W 090°47'2 4.4
2017-Nov-09 19:00N 29°34' W 090°45'2 4.2
2017-Nov-09 18:30N 29°35' W 090°43'2 3.3
2017-Nov-09 18:00N 29°37' W 090°42'0 0.0
2017-Nov-09 17:30N 29°37' W 090°42'0 0.0
2017-Nov-09 17:00N 29°37' W 090°42'0 0.0
2017-Nov-09 16:30N 29°37' W 090°42'0 0.0
2017-Nov-09 16:00N 29°37' W 090°42'0 0.0
2017-Nov-09 15:30N 29°37' W 090°42'0 0.0
2017-Nov-09 15:00N 29°37' W 090°42'0 0.0
2017-Nov-09 14:30N 29°37' W 090°42'0 0.0
2017-Nov-09 13:58N 29°37' W 090°42'0 0.0
2017-Nov-09 13:30N 29°37' W 090°42'0 0.0
2017-Nov-09 13:00N 29°37' W 090°42'0 0.0
2017-Nov-09 12:30N 29°37' W 090°42'0 0.0
2017-Nov-09 12:00N 29°37' W 090°42'0 0.0
2017-Nov-09 11:30N 29°37' W 090°42'0 0.0
2017-Nov-09 11:00N 29°37' W 090°42'0 0.0
2017-Nov-09 10:30N 29°37' W 090°42'0 0.0
2017-Nov-09 10:00N 29°37' W 090°42'0 0.0
2017-Nov-09 09:30N 29°37' W 090°42'0 0.0
2017-Nov-09 09:00N 29°37' W 090°42'0 0.0
2017-Nov-09 08:30N 29°37' W 090°42'0 0.0
2017-Nov-09 08:00N 29°37' W 090°42'0 0.0
2017-Nov-09 07:30N 29°37' W 090°42'0 0.0
2017-Nov-09 07:00N 29°37' W 090°42'0 0.0
2017-Nov-09 06:30N 29°37' W 090°42'1 1.3
2017-Nov-09 06:00N 29°37' W 090°42'2 4.9
2017-Nov-09 05:30N 29°36' W 090°39'3 5.7
2017-Nov-09 05:00N 29°35' W 090°36'5 0.1
2017-Nov-07 04:00N 29°34' W 090°30'3 5.2
2017-Nov-07 03:30N 29°34' W 090°33'2 5.0
2017-Nov-07 03:00N 29°35' W 090°36'3 4.9
2017-Nov-07 02:29N 29°36' W 090°39'2 4.7
2017-Nov-07 02:00N 29°36' W 090°41'1 3.0
2017-Nov-07 01:30N 29°36' W 090°43'2 4.5
2017-Nov-07 01:00N 29°34' W 090°44'  
Track history (hours):
 
Tides and Currents Weather Stations Pressure Air Temp Water Temp Dewpoint Dewpoint Depression Visibility Wind Speed Wind Dir Waves Ship Positions

Christian W Cenac

Owner: CTCO Marine Services LLC, Houma, LA. More information available from US FCC via Universal Licensing System and Coast Guard Vessel Documentation Center.

Last reported at 2017-Nov-16 23:51 UTC. Time now 2017-Nov-18 08:57 UTC.
Position N 29°44' W 095°08'.

Length 85 m; draft 2.1 m.

Type: Tug. MMSI: 367462490.

Date/timePositionNaut miles runAvg speedWind from/ knotsBaromVisibWave heightAir tempDewpointWater temp
2017-Nov-16 23:51N 29°44' W 095°08'3 5.0
2017-Nov-16 23:12N 29°45' W 095°12'  
2017-Nov-12 11:08N 29°44' W 095°08'6 0.4
2017-Nov-11 18:53N 29°42' W 095°01'2 5.3
2017-Nov-11 18:30N 29°41' W 094°59'3 6.3
2017-Nov-11 18:00N 29°38' W 094°58'4 6.4
2017-Nov-11 17:24N 29°35' W 094°56'3 6.5
2017-Nov-11 17:00N 29°33' W 094°54'134 4.5
2017-Nov-10 11:31N 29°51' W 092°22'0 5.9
2017-Nov-10 11:30N 29°51' W 092°22'3 6.1
2017-Nov-10 11:00N 29°50' W 092°18'3 5.9
2017-Nov-10 10:30N 29°48' W 092°15'3 5.6
2017-Nov-10 10:00N 29°47' W 092°12'1 1.2
2017-Nov-10 09:30N 29°47' W 092°12'1 2.3
2017-Nov-10 09:00N 29°47' W 092°11'2 5.0
2017-Nov-10 08:30N 29°47' W 092°08'3 5.7
2017-Nov-10 07:54N 29°48' W 092°04'2 5.8
2017-Nov-10 07:28N 29°49' W 092°01'66 5.6
2017-Nov-09 19:48N 29°32' W 090°49'2 6.1
2017-Nov-09 19:30N 29°32' W 090°47'2 4.4
2017-Nov-09 19:00N 29°34' W 090°45'2 4.2
2017-Nov-09 18:30N 29°35' W 090°43'2 3.3
2017-Nov-09 18:00N 29°37' W 090°42'0 0.0
2017-Nov-09 17:30N 29°37' W 090°42'0 0.0
2017-Nov-09 17:00N 29°37' W 090°42'0 0.0
2017-Nov-09 16:30N 29°37' W 090°42'0 0.0
2017-Nov-09 16:00N 29°37' W 090°42'0 0.0
2017-Nov-09 15:30N 29°37' W 090°42'0 0.0
2017-Nov-09 15:00N 29°37' W 090°42'0 0.0
2017-Nov-09 14:30N 29°37' W 090°42'0 0.0
2017-Nov-09 13:58N 29°37' W 090°42'0 0.0
2017-Nov-09 13:30N 29°37' W 090°42'0 0.0
2017-Nov-09 13:00N 29°37' W 090°42'0 0.0
2017-Nov-09 12:30N 29°37' W 090°42'0 0.0
2017-Nov-09 12:00N 29°37' W 090°42'0 0.0
2017-Nov-09 11:30N 29°37' W 090°42'0 0.0
2017-Nov-09 11:00N 29°37' W 090°42'0 0.0
2017-Nov-09 10:30N 29°37' W 090°42'0 0.0
2017-Nov-09 10:00N 29°37' W 090°42'0 0.0
2017-Nov-09 09:30N 29°37' W 090°42'0 0.0
2017-Nov-09 09:00N 29°37' W 090°42'0 0.0
2017-Nov-09 08:30N 29°37' W 090°42'0 0.0
2017-Nov-09 08:00N 29°37' W 090°42'0 0.0
2017-Nov-09 07:30N 29°37' W 090°42'0 0.0
2017-Nov-09 07:00N 29°37' W 090°42'0 0.0
2017-Nov-09 06:30N 29°37' W 090°42'1 1.3
2017-Nov-09 06:00N 29°37' W 090°42'2 4.9
2017-Nov-09 05:30N 29°36' W 090°39'3 5.7
2017-Nov-09 05:00N 29°35' W 090°36'5 0.1
2017-Nov-07 04:00N 29°34' W 090°30'3 5.2
2017-Nov-07 03:30N 29°34' W 090°33'2 5.0
2017-Nov-07 03:00N 29°35' W 090°36'3 4.9
2017-Nov-07 02:29N 29°36' W 090°39'2 4.7
2017-Nov-07 02:00N 29°36' W 090°41'1 3.0
2017-Nov-07 01:30N 29°36' W 090°43'2 4.5
2017-Nov-07 01:00N 29°34' W 090°44'  

Dump ship's entire track history